Time;durP1;ratioP1;P1;durP2;ratioP2;P2;SDS_P1;SDS_P2;PMS_P1;PMS_P2;Temp;Humidity;BMP_temperature;BMP_pressure;BME280_temperature;BME280_humidity;BME280_pressure;Samples;Min_cycle;Max_cycle;Signal;HPM_P1;HPM_P2
2022/03/06 00:01:15;;;;;;;17.00;9.93;;;-0.80;99.90;;;;;;5047789;28;20212;-82
2022/03/06 00:03:42;;;;;;;22.00;7.97;;;-0.80;99.90;;;;;;5041589;28;20186;-79
2022/03/06 00:06:07;;;;;;;19.95;9.38;;;-0.80;99.90;;;;;;5046487;28;20552;-81
2022/03/06 00:08:33;;;;;;;15.40;8.47;;;-0.90;99.90;;;;;;5045573;28;20202;-82
2022/03/06 00:10:58;;;;;;;18.23;9.43;;;-1.00;99.90;;;;;;5045244;28;20457;-82
2022/03/06 00:13:24;;;;;;;16.83;8.43;;;-1.10;99.90;;;;;;5046385;28;20239;-81
2022/03/06 00:15:50;;;;;;;20.53;10.67;;;-1.10;99.90;;;;;;5044120;28;20331;-82
2022/03/06 00:18:15;;;;;;;24.40;11.00;;;-1.20;99.90;;;;;;5044756;28;20256;-84
2022/03/06 00:20:42;;;;;;;13.07;7.60;;;-1.20;99.90;;;;;;5029967;28;20197;-86
2022/03/06 00:23:08;;;;;;;18.25;8.50;;;-1.20;99.90;;;;;;5023929;28;20203;-86
2022/03/06 00:25:34;;;;;;;15.25;7.32;;;-1.20;99.90;;;;;;5029116;28;20612;-86
2022/03/06 00:28:00;;;;;;;22.75;9.93;;;-1.20;99.90;;;;;;5051144;28;20177;-85
2022/03/06 00:30:26;;;;;;;18.05;8.73;;;-1.30;99.90;;;;;;5047715;28;20624;-85
2022/03/06 00:32:51;;;;;;;18.23;9.03;;;-1.30;99.90;;;;;;5044110;28;20196;-87
2022/03/06 00:35:17;;;;;;;18.53;7.90;;;-1.40;99.90;;;;;;5046722;28;20254;-83
2022/03/06 00:37:43;;;;;;;17.67;8.30;;;-1.40;99.90;;;;;;5050352;28;20201;-83
2022/03/06 00:40:09;;;;;;;17.93;9.00;;;-1.50;99.90;;;;;;5044682;28;20197;-83
2022/03/06 00:42:34;;;;;;;16.65;8.38;;;-1.60;99.90;;;;;;5048594;28;20284;-84
2022/03/06 00:45:00;;;;;;;18.90;8.63;;;-1.50;99.90;;;;;;5035925;28;20530;-83
2022/03/06 00:47:26;;;;;;;13.93;8.20;;;-1.50;99.90;;;;;;5053930;28;20173;-84
2022/03/06 00:49:51;;;;;;;19.60;8.03;;;-1.40;99.90;;;;;;5036910;28;20211;-84
2022/03/06 00:52:17;;;;;;;14.90;7.90;;;-1.30;99.90;;;;;;5047757;28;20682;-81
2022/03/06 00:54:42;;;;;;;24.50;7.40;;;-1.20;99.90;;;;;;5042423;28;20256;-83
2022/03/06 00:57:08;;;;;;;17.03;8.40;;;-1.30;99.90;;;;;;5033209;28;20173;-83
2022/03/06 00:59:35;;;;;;;19.93;8.47;;;-1.30;99.90;;;;;;5024896;28;20229;-82
2022/03/06 01:02:02;;;;;;;18.08;8.80;;;-1.40;99.90;;;;;;5050320;28;20177;-83
2022/03/06 01:04:28;;;;;;;15.88;8.07;;;-1.30;99.90;;;;;;5055823;28;20195;-83
2022/03/06 01:06:54;;;;;;;18.00;8.07;;;-1.30;99.90;;;;;;5052050;28;20189;-82
2022/03/06 01:09:19;;;;;;;24.03;9.20;;;-1.30;99.90;;;;;;5046221;28;20242;-84
2022/03/06 01:11:45;;;;;;;15.30;8.73;;;-1.30;99.90;;;;;;5048436;28;20923;-84
2022/03/06 01:14:10;;;;;;;18.70;9.20;;;-1.30;99.90;;;;;;5057594;28;20221;-82
2022/03/06 01:16:36;;;;;;;18.03;8.50;;;-1.20;99.90;;;;;;5047269;28;20181;-84
2022/03/06 01:19:02;;;;;;;14.70;8.50;;;-1.10;99.90;;;;;;5049195;28;20672;-81
2022/03/06 01:21:28;;;;;;;20.55;9.35;;;-1.10;99.90;;;;;;5047727;28;20174;-81
2022/03/06 01:23:53;;;;;;;14.23;8.00;;;-1.00;99.90;;;;;;5048261;28;20180;-85
2022/03/06 01:26:19;;;;;;;16.77;8.47;;;-1.00;99.90;;;;;;5047237;28;20193;-85
2022/03/06 01:28:45;;;;;;;19.20;8.20;;;0.70;99.90;;;;;;5028742;28;20181;-84
2022/03/06 01:31:10;;;;;;;22.20;8.33;;;-0.60;99.90;;;;;;5048164;28;20446;-84
2022/03/06 01:33:36;;;;;;;15.40;8.17;;;-0.90;99.90;;;;;;5038328;28;21148;-85
2022/03/06 01:36:02;;;;;;;13.70;7.60;;;-1.00;99.90;;;;;;5050782;28;20212;-83
2022/03/06 01:38:28;;;;;;;20.00;9.30;;;-0.90;99.90;;;;;;5045255;28;20443;-84
2022/03/06 01:40:53;;;;;;;17.93;9.20;;;-0.20;99.90;;;;;;5033392;28;20236;-84
2022/03/06 01:43:19;;;;;;;14.63;8.47;;;-1.00;99.90;;;;;;5045004;28;20200;-84
2022/03/06 01:45:44;;;;;;;18.37;10.53;;;-1.10;99.90;;;;;;5044705;28;20303;-83
2022/03/06 01:48:10;;;;;;;20.30;9.00;;;-1.00;99.90;;;;;;5045007;28;20173;-86
2022/03/06 01:50:37;;;;;;;16.70;9.00;;;-1.00;99.90;;;;;;5043369;28;20853;-83
2022/03/06 01:53:05;;;;;;;19.42;9.35;;;-1.00;99.90;;;;;;5045061;28;20185;-82
2022/03/06 01:55:31;;;;;;;19.50;10.45;;;-1.00;99.90;;;;;;5045813;28;20324;-83
2022/03/06 01:57:59;;;;;;;21.03;8.73;;;-1.10;99.90;;;;;;5044210;28;20204;-82
2022/03/06 02:00:28;;;;;;;17.35;8.50;;;-1.20;99.90;;;;;;5043490;28;20447;-84
2022/03/06 02:02:54;;;;;;;22.42;8.43;;;-1.20;99.90;;;;;;5030324;28;20260;-84
2022/03/06 02:05:21;;;;;;;14.02;9.02;;;-1.20;99.90;;;;;;5029793;28;20185;-86
2022/03/06 02:08:25;;;;;;;15.55;8.77;;;-1.40;99.90;;;;;;5047377;28;20308;-84
2022/03/06 02:10:53;;;;;;;18.17;8.77;;;-1.40;99.90;;;;;;5026729;28;20645;-84
2022/03/06 02:13:18;;;;;;;19.48;8.30;;;-1.40;99.90;;;;;;5048580;28;21170;-85
2022/03/06 02:15:44;;;;;;;14.83;7.73;;;-1.40;99.90;;;;;;5045592;28;20204;-84
2022/03/06 02:18:10;;;;;;;15.50;8.20;;;-1.40;99.90;;;;;;5043307;28;20586;-85
2022/03/06 02:20:37;;;;;;;16.27;8.20;;;-1.50;99.90;;;;;;5026327;28;20193;-84
2022/03/06 02:23:03;;;;;;;21.77;9.48;;;-1.50;99.90;;;;;;5028850;28;20188;-85
2022/03/06 02:25:33;;;;;;;15.88;9.73;;;-1.60;99.90;;;;;;5045816;28;20183;-84
2022/03/06 02:28:02;;;;;;;15.38;8.40;;;-1.70;99.90;;;;;;5049051;28;20544;-84
2022/03/06 02:30:30;;;;;;;16.48;7.68;;;-1.70;99.90;;;;;;5044273;28;20209;-84
2022/03/06 02:32:58;;;;;;;14.85;8.20;;;-1.70;99.90;;;;;;5047209;28;20215;-84
2022/03/06 02:35:24;;;;;;;17.55;9.25;;;-1.70;99.90;;;;;;5033515;28;20239;-84
2022/03/06 02:37:50;;;;;;;18.52;9.43;;;-1.80;99.90;;;;;;5051856;28;20258;-84
2022/03/06 02:40:17;;;;;;;19.57;9.43;;;-1.80;99.90;;;;;;5052077;28;20218;-83
2022/03/06 02:42:47;;;;;;;22.92;8.90;;;-1.90;99.90;;;;;;5034179;28;20468;-83
2022/03/06 02:45:26;;;;;;;19.25;8.95;;;-2.00;99.90;;;;;;5053240;28;20181;-82
2022/03/06 02:47:53;;;;;;;22.20;9.50;;;-2.00;99.90;;;;;;5052603;28;20296;-87
2022/03/06 02:50:22;;;;;;;14.32;7.20;;;-2.00;99.90;;;;;;5051107;28;20685;-85
2022/03/06 02:52:49;;;;;;;18.83;9.30;;;-2.00;99.90;;;;;;5034936;28;20543;-85
2022/03/06 02:55:15;;;;;;;14.95;9.75;;;-2.00;99.90;;;;;;5049011;28;20940;-84
2022/03/06 02:57:41;;;;;;;17.52;9.63;;;-2.00;99.90;;;;;;5048674;28;20251;-86
2022/03/06 03:00:10;;;;;;;17.48;7.93;;;-2.00;99.90;;;;;;5053658;28;20193;-85
2022/03/06 03:02:37;;;;;;;15.55;8.57;;;-2.10;99.90;;;;;;5053156;28;20170;-86
2022/03/06 03:05:04;;;;;;;22.90;9.60;;;-2.10;99.90;;;;;;5054462;28;20173;-86
2022/03/06 03:07:29;;;;;;;15.35;8.18;;;-2.20;99.90;;;;;;5052802;28;20172;-85
2022/03/06 03:09:55;;;;;;;16.17;8.77;;;-2.30;99.90;;;;;;5050707;28;20216;-85
2022/03/06 03:12:20;;;;;;;17.77;8.87;;;-2.30;99.90;;;;;;5030695;28;20178;-85
2022/03/06 03:14:46;;;;;;;20.87;10.07;;;-2.40;99.90;;;;;;5029716;28;20220;-86
2022/03/06 03:17:11;;;;;;;17.30;8.20;;;-2.40;99.90;;;;;;5033770;28;20165;-85
2022/03/06 03:19:37;;;;;;;19.30;9.73;;;-2.50;99.90;;;;;;5030287;28;20220;-87
2022/03/06 03:22:03;;;;;;;25.33;9.20;;;-2.50;99.90;;;;;;5031002;28;20166;-85
2022/03/06 03:24:29;;;;;;;19.30;8.33;;;-2.50;99.90;;;;;;5038240;28;20217;-86
2022/03/06 03:26:55;;;;;;;20.13;8.98;;;-2.60;99.90;;;;;;5050044;28;20510;-87
2022/03/06 03:29:20;;;;;;;22.40;9.57;;;-2.60;99.90;;;;;;5046482;28;20210;-86
2022/03/06 03:31:46;;;;;;;17.83;9.07;;;-2.70;99.90;;;;;;5036606;28;20181;-86
2022/03/06 03:34:12;;;;;;;14.93;8.43;;;-2.70;99.90;;;;;;5030976;28;20557;-83
2022/03/06 03:36:38;;;;;;;21.00;10.33;;;-2.70;99.90;;;;;;5030798;28;20204;-86
2022/03/06 03:39:04;;;;;;;19.17;9.73;;;-2.80;99.90;;;;;;5035800;28;20439;-85
2022/03/06 03:41:30;;;;;;;19.88;10.25;;;-2.80;99.90;;;;;;5030233;28;20177;-85
2022/03/06 03:43:56;;;;;;;20.63;9.53;;;-2.90;99.90;;;;;;5044378;28;20669;-86
2022/03/06 03:46:21;;;;;;;16.73;8.32;;;-2.90;99.90;;;;;;5050032;28;20265;-83
2022/03/06 03:48:47;;;;;;;21.60;9.70;;;-2.90;99.90;;;;;;5047522;28;20263;-84
2022/03/06 03:51:13;;;;;;;18.20;7.90;;;-2.90;99.90;;;;;;5047612;28;20648;-84
2022/03/06 03:53:39;;;;;;;20.80;9.77;;;-3.00;99.90;;;;;;5045516;28;20173;-84
2022/03/06 03:56:05;;;;;;;14.57;7.27;;;-3.20;99.90;;;;;;5046881;28;20214;-84
2022/03/06 03:58:31;;;;;;;19.30;8.53;;;-3.30;99.90;;;;;;5049694;28;20181;-85
2022/03/06 04:00:57;;;;;;;20.73;10.02;;;-3.20;99.90;;;;;;5049133;28;20462;-84
2022/03/06 04:03:23;;;;;;;15.93;8.97;;;-3.20;99.90;;;;;;5048479;28;20177;-85
2022/03/06 04:05:49;;;;;;;18.95;8.73;;;-3.20;99.90;;;;;;5045423;28;20723;-82
2022/03/06 04:08:15;;;;;;;19.15;9.57;;;-3.20;99.90;;;;;;5033887;28;20591;-84
2022/03/06 04:10:40;;;;;;;15.27;8.10;;;-3.20;99.90;;;;;;5047234;28;20290;-82
2022/03/06 04:13:06;;;;;;;17.60;9.23;;;-3.20;99.90;;;;;;5050485;28;20184;-82
2022/03/06 04:15:32;;;;;;;21.38;8.55;;;-3.20;99.90;;;;;;5044216;28;20266;-85
2022/03/06 04:17:58;;;;;;;22.23;10.70;;;-3.10;99.90;;;;;;5045074;28;20264;-83
2022/03/06 04:20:23;;;;;;;21.37;10.37;;;-3.00;99.90;;;;;;5045336;28;20205;-83
2022/03/06 04:22:49;;;;;;;20.47;8.97;;;-2.90;99.90;;;;;;5046375;28;20633;-84
2022/03/06 04:25:15;;;;;;;25.33;10.23;;;-2.80;99.90;;;;;;5048187;28;20432;-83
2022/03/06 04:27:41;;;;;;;26.03;11.87;;;-2.70;99.90;;;;;;5048179;28;20177;-87
2022/03/06 04:30:07;;;;;;;17.33;8.53;;;-2.50;99.90;;;;;;5046061;28;20213;-85
2022/03/06 04:32:32;;;;;;;17.08;9.50;;;-2.50;99.90;;;;;;5046642;28;20238;-85
2022/03/06 04:34:58;;;;;;;26.63;9.50;;;-2.40;99.90;;;;;;5047602;28;20288;-86
2022/03/06 04:37:24;;;;;;;18.77;8.40;;;-2.30;99.90;;;;;;5033403;28;20189;-86
2022/03/06 04:39:50;;;;;;;21.70;9.50;;;-2.30;99.90;;;;;;5031207;28;20308;-86
2022/03/06 04:42:15;;;;;;;21.30;10.60;;;-2.30;99.90;;;;;;5049365;28;20829;-85
2022/03/06 04:44:41;;;;;;;20.20;10.57;;;-2.20;99.90;;;;;;5031073;28;20440;-86
2022/03/06 04:47:07;;;;;;;18.80;10.00;;;-2.20;99.90;;;;;;5047650;28;20177;-86
2022/03/06 04:49:33;;;;;;;17.60;8.97;;;-2.10;99.90;;;;;;5025125;28;20209;-85
2022/03/06 04:51:58;;;;;;;22.05;9.65;;;-2.00;99.90;;;;;;5046018;28;20465;-87
2022/03/06 04:54:24;;;;;;;23.60;9.53;;;-2.00;99.90;;;;;;5025490;28;20201;-86
2022/03/06 04:56:50;;;;;;;22.00;10.77;;;-2.00;99.90;;;;;;5029464;28;20260;-87
2022/03/06 04:59:16;;;;;;;19.73;8.20;;;-2.00;99.90;;;;;;5046083;28;20240;-86
2022/03/06 05:01:41;;;;;;;23.40;9.73;;;-2.00;99.90;;;;;;5046240;28;20195;-86
2022/03/06 05:04:07;;;;;;;18.93;9.17;;;-2.00;99.90;;;;;;5031666;28;20805;-84
2022/03/06 05:06:32;;;;;;;21.07;10.20;;;-2.00;99.90;;;;;;5042419;28;20189;-85
2022/03/06 05:08:58;;;;;;;25.13;11.37;;;-1.90;99.90;;;;;;5050504;28;20177;-87
2022/03/06 05:11:24;;;;;;;20.80;9.53;;;-2.00;99.90;;;;;;5033812;28;20202;-85
2022/03/06 05:13:50;;;;;;;21.97;10.00;;;-1.90;99.90;;;;;;5046053;28;20180;-86
2022/03/06 05:16:15;;;;;;;25.80;10.40;;;-1.80;99.90;;;;;;5049470;28;20431;-85
2022/03/06 05:18:41;;;;;;;21.77;9.47;;;-1.80;99.90;;;;;;5046232;28;20487;-85
2022/03/06 05:21:06;;;;;;;14.73;8.03;;;-1.70;99.90;;;;;;5039633;28;20250;-84
2022/03/06 05:23:32;;;;;;;21.53;9.10;;;-1.70;99.90;;;;;;5050290;28;20169;-85
2022/03/06 05:25:57;;;;;;;23.50;9.20;;;-1.70;99.90;;;;;;5040199;28;20185;-86
2022/03/06 05:28:25;;;;;;;15.87;8.27;;;-1.70;99.90;;;;;;5046775;28;20690;-87
2022/03/06 05:30:51;;;;;;;18.95;9.50;;;-1.80;99.90;;;;;;5044087;28;20212;-85
2022/03/06 05:33:17;;;;;;;22.23;9.30;;;-1.80;99.90;;;;;;5034558;28;20548;-86
2022/03/06 05:35:42;;;;;;;24.43;11.00;;;-1.90;99.90;;;;;;5047671;28;20657;-86
2022/03/06 05:38:08;;;;;;;24.50;10.67;;;-1.90;99.90;;;;;;5048023;28;20260;-86
2022/03/06 05:40:33;;;;;;;19.33;9.83;;;-2.00;99.90;;;;;;5037187;28;20281;-87
2022/03/06 05:42:59;;;;;;;21.50;9.93;;;-2.10;99.90;;;;;;5046493;28;20173;-86
2022/03/06 05:45:25;;;;;;;18.33;9.73;;;-2.10;99.90;;;;;;5027472;28;20177;-85
2022/03/06 05:47:51;;;;;;;20.10;10.23;;;-2.20;99.90;;;;;;5034264;28;20173;-86
2022/03/06 05:50:16;;;;;;;19.63;9.43;;;-2.30;99.90;;;;;;5048592;28;20447;-85
2022/03/06 05:52:42;;;;;;;22.97;10.20;;;-2.40;99.90;;;;;;5036543;28;20605;-86
2022/03/06 05:55:09;;;;;;;21.67;10.10;;;-2.40;99.90;;;;;;5042555;28;20228;-86
2022/03/06 05:57:35;;;;;;;18.65;9.07;;;-2.50;99.90;;;;;;5042807;28;20192;-85
2022/03/06 06:00:00;;;;;;;21.00;9.40;;;-2.50;99.90;;;;;;5035374;28;20194;-85
2022/03/06 06:02:26;;;;;;;24.43;12.27;;;-2.60;99.90;;;;;;5033091;28;20541;-84
2022/03/06 06:04:52;;;;;;;20.07;9.30;;;-2.60;99.90;;;;;;5048781;28;20170;-85
2022/03/06 06:07:17;;;;;;;23.10;11.50;;;-2.60;99.90;;;;;;5028830;28;20170;-83
2022/03/06 06:09:43;;;;;;;18.23;9.10;;;-2.60;99.90;;;;;;5045771;28;20546;-83
2022/03/06 06:12:09;;;;;;;20.40;10.90;;;-2.50;99.90;;;;;;5052744;28;20172;-85
2022/03/06 06:14:34;;;;;;;20.40;9.98;;;-2.50;99.90;;;;;;5056815;28;20197;-84
2022/03/06 06:17:00;;;;;;;20.90;10.80;;;-2.40;99.90;;;;;;5045868;28;20173;-83
2022/03/06 06:19:26;;;;;;;20.60;10.20;;;-2.30;99.90;;;;;;5033247;28;20204;-84
2022/03/06 06:21:52;;;;;;;24.90;10.83;;;-2.20;99.90;;;;;;5027619;28;20182;-82
2022/03/06 06:24:18;;;;;;;19.27;10.70;;;-2.10;99.90;;;;;;5047580;28;20782;-83
2022/03/06 06:26:47;;;;;;;19.83;10.93;;;-2.10;99.90;;;;;;5028739;28;20193;-84
2022/03/06 06:29:13;;;;;;;19.33;9.40;;;-1.40;99.90;;;;;;5046853;28;20453;-84
2022/03/06 06:31:40;;;;;;;21.77;10.20;;;-1.30;99.90;;;;;;5044086;28;20196;-86
2022/03/06 06:34:05;;;;;;;19.20;9.05;;;-0.20;99.90;;;;;;5043629;28;20177;-86
2022/03/06 06:36:31;;;;;;;21.30;8.37;;;0.60;99.90;;;;;;5028982;28;20320;-85
2022/03/06 06:38:57;;;;;;;21.87;10.07;;;;;;;;;;5043379;28;20535;-84
2022/03/06 06:41:22;;;;;;;24.50;9.83;;;2.70;99.90;;;;;;5039218;28;20555;-86
2022/03/06 06:43:49;;;;;;;21.17;10.10;;;3.90;99.90;;;;;;5044729;28;20416;-84
2022/03/06 06:46:14;;;;;;;21.55;10.55;;;5.00;99.90;;;;;;5043091;28;20204;-85
2022/03/06 06:48:40;;;;;;;14.30;8.20;;;6.30;99.90;;;;;;5029838;28;20177;-86
2022/03/06 06:51:07;;;;;;;17.70;8.60;;;7.60;99.90;;;;;;5038263;28;20248;-86
2022/03/06 06:53:33;;;;;;;17.55;9.73;;;7.30;99.90;;;;;;5045352;28;20177;-85
2022/03/06 06:55:58;;;;;;;15.40;8.10;;;8.20;99.90;;;;;;5039364;28;20221;-85
2022/03/06 06:58:24;;;;;;;17.97;9.60;;;9.40;99.90;;;;;;5047004;28;20192;-85
2022/03/06 07:00:50;;;;;;;15.10;9.13;;;10.60;99.60;;;;;;5044649;28;20559;-83
2022/03/06 07:03:15;;;;;;;16.80;9.40;;;11.90;97.30;;;;;;5044587;28;20189;-82
2022/03/06 07:05:41;;;;;;;18.97;10.97;;;12.70;92.90;;;;;;5029189;28;20186;-81
2022/03/06 07:08:06;;;;;;;15.33;9.87;;;13.60;89.90;;;;;;5044960;28;20204;-83
2022/03/06 07:10:32;;;;;;;16.57;9.47;;;14.60;85.60;;;;;;5048603;28;20295;-84
2022/03/06 07:12:58;;;;;;;16.10;10.67;;;15.70;81.90;;;;;;5049294;28;20212;-85
2022/03/06 07:15:32;;;;;;;18.73;10.87;;;16.50;74.40;;;;;;5043759;28;20463;-84
2022/03/06 07:17:59;;;;;;;19.70;11.10;;;17.10;69.10;;;;;;5031321;28;20180;-85
2022/03/06 07:20:26;;;;;;;18.23;10.80;;;17.90;63.90;;;;;;5048746;28;20489;-85
2022/03/06 07:22:54;;;;;;;17.67;11.30;;;18.30;58.50;;;;;;5045676;28;20435;-83
2022/03/06 07:25:20;;;;;;;18.63;10.87;;;18.50;55.40;;;;;;5035524;28;20959;-84
2022/03/06 07:27:45;;;;;;;18.90;11.37;;;18.70;54.30;;;;;;5051279;28;20492;-85
2022/03/06 07:30:12;;;;;;;19.67;11.97;;;18.50;50.60;;;;;;5057251;28;20534;-84
2022/03/06 07:32:42;;;;;;;17.40;12.27;;;18.20;49.90;;;;;;5029047;28;20169;-83
2022/03/06 07:35:08;;;;;;;20.80;13.07;;;17.60;49.80;;;;;;5048060;28;20542;-85
2022/03/06 07:37:33;;;;;;;20.50;13.70;;;17.20;49.60;;;;;;5044026;28;20423;-85
2022/03/06 07:39:59;;;;;;;21.27;12.27;;;16.20;49.10;;;;;;5052871;28;20546;-85
2022/03/06 07:42:24;;;;;;;17.07;11.63;;;16.20;50.70;;;;;;5051246;28;20172;-85
2022/03/06 07:44:50;;;;;;;18.17;12.27;;;16.20;50.00;;;;;;5045800;28;20177;-86
2022/03/06 07:47:15;;;;;;;20.43;13.27;;;16.80;50.70;;;;;;5037363;28;20799;-85
2022/03/06 07:49:41;;;;;;;22.90;12.23;;;17.00;48.50;;;;;;5051859;28;20211;-85
2022/03/06 07:52:07;;;;;;;20.37;13.37;;;17.80;50.00;;;;;;5028941;28;20177;-85
2022/03/06 07:54:32;;;;;;;21.17;12.10;;;18.10;47.90;;;;;;5045939;28;20681;-83
2022/03/06 07:56:58;;;;;;;20.53;12.93;;;18.20;48.00;;;;;;5044193;28;20192;-86
2022/03/06 07:59:25;;;;;;;16.27;11.93;;;17.40;46.70;;;;;;5034669;28;20224;-84
2022/03/06 08:01:52;;;;;;;17.43;11.00;;;17.60;48.30;;;;;;5043986;28;20626;-83
2022/03/06 08:04:18;;;;;;;20.20;11.30;;;17.70;47.40;;;;;;5029419;28;20436;-85
2022/03/06 08:06:43;;;;;;;19.70;11.77;;;18.00;48.00;;;;;;5031647;28;20442;-85
2022/03/06 08:09:09;;;;;;;20.13;12.83;;;18.30;45.80;;;;;;5031383;28;20173;-83
2022/03/06 08:11:34;;;;;;;22.33;12.90;;;18.10;46.20;;;;;;5040544;23;20240;-87
2022/03/06 08:14:00;;;;;;;18.30;12.50;;;17.00;45.20;;;;;;5045165;28;20216;-89
2022/03/06 08:16:25;;;;;;;17.93;12.50;;;16.80;47.60;;;;;;5035359;28;20181;-89
2022/03/06 08:18:51;;;;;;;16.70;11.33;;;17.10;47.50;;;;;;5035201;28;20189;-87
2022/03/06 08:21:16;;;;;;;19.80;12.93;;;16.10;46.30;;;;;;5043127;28;20177;-88
2022/03/06 08:23:42;;;;;;;22.63;12.30;;;15.40;47.20;;;;;;5042304;28;20660;-87
2022/03/06 08:26:07;;;;;;;24.60;11.57;;;15.30;47.60;;;;;;5036817;28;20191;-88
2022/03/06 08:28:33;;;;;;;18.47;11.93;;;;;;;;;;5040044;28;20270;-89
2022/03/06 08:30:59;;;;;;;19.67;11.30;;;;;;;;;;5038998;28;20274;-87
2022/03/06 08:33:25;;;;;;;16.77;10.80;;;15.20;50.20;;;;;;5041772;28;21003;-88
2022/03/06 08:35:51;;;;;;;18.43;11.27;;;15.60;49.80;;;;;;5035358;28;20822;-87
2022/03/06 08:38:17;;;;;;;23.80;11.93;;;14.20;49.40;;;;;;5042743;28;20189;-87
2022/03/06 08:40:42;;;;;;;22.60;12.23;;;14.60;50.90;;;;;;5034047;28;21180;-83
2022/03/06 08:43:08;;;;;;;19.03;11.63;;;;;;;;;;5033422;28;20256;-85
2022/03/06 08:45:34;;;;;;;21.20;12.63;;;16.90;47.80;;;;;;5065130;28;20203;-86
2022/03/06 08:48:00;;;;;;;19.10;12.03;;;16.80;48.00;;;;;;5043695;28;20491;-84
2022/03/06 08:50:26;;;;;;;20.20;13.10;;;;;;;;;;5033741;28;20193;-88
2022/03/06 08:52:51;;;;;;;21.63;13.37;;;16.70;48.30;;;;;;5036494;28;20458;-88
2022/03/06 08:55:17;;;;;;;20.93;11.77;;;17.00;47.70;;;;;;5030994;28;20572;-88
2022/03/06 08:57:42;;;;;;;22.00;12.23;;;;;;;;;;5036803;28;22807;-86
2022/03/06 09:00:09;;;;;;;22.13;13.13;;;17.40;47.80;;;;;;5038926;28;20189;-87
2022/03/06 09:02:35;;;;;;;18.47;12.20;;;16.60;48.40;;;;;;5043700;28;20440;-85
2022/03/06 09:05:01;;;;;;;18.60;12.17;;;;;;;;;;5047957;28;20458;-85
2022/03/06 09:07:27;;;;;;;19.90;12.80;;;;;;;;;;5062335;28;20432;-85
2022/03/06 09:09:53;;;;;;;16.83;11.90;;;18.00;45.40;;;;;;5054718;28;20428;-89
2022/03/06 09:12:19;;;;;;;16.70;10.60;;;;;;;;;;5059605;28;20474;-86
2022/03/06 09:14:45;;;;;;;15.80;12.27;;;16.90;45.40;;;;;;5064441;28;22321;-86
2022/03/06 09:17:11;;;;;;;17.80;11.17;;;;;;;;;;5044776;28;21288;-85
2022/03/06 09:19:37;;;;;;;23.17;12.93;;;16.40;46.50;;;;;;5055632;28;20434;-85
2022/03/06 09:22:03;;;;;;;18.40;11.90;;;15.80;47.40;;;;;;5041666;28;20440;-86
2022/03/06 09:24:30;;;;;;;18.60;11.80;;;;;;;;;;5039559;28;20221;-85
2022/03/06 09:26:56;;;;;;;19.00;12.23;;;;;;;;;;5045813;28;20435;-85
2022/03/06 09:29:22;;;;;;;16.07;11.43;;;;;;;;;;5046721;28;20442;-87
2022/03/06 09:31:48;;;;;;;18.83;12.13;;;15.80;46.80;;;;;;5040408;28;20431;-87
2022/03/06 09:34:14;;;;;;;13.10;10.17;;;15.20;46.00;;;;;;5059286;28;20456;-86
2022/03/06 09:36:40;;;;;;;18.20;11.30;;;;;;;;;;5051702;28;20188;-86
2022/03/06 09:39:06;;;;;;;17.57;11.93;;;14.90;47.70;;;;;;5049541;28;20173;-87
2022/03/06 09:41:37;;;;;;;17.50;11.00;;;15.30;48.10;;;;;;5043964;28;20443;-88
2022/03/06 09:44:06;;;;;;;13.70;9.97;;;15.50;46.10;;;;;;5058676;28;20495;-88
2022/03/06 09:46:34;;;;;;;9.93;6.50;;;13.80;42.00;;;;;;5062163;28;20431;-88
2022/03/06 09:49:01;;;;;;;10.00;6.70;;;11.60;40.90;;;;;;5056292;28;20637;-86
2022/03/06 09:51:30;;;;;;;10.40;7.57;;;11.50;41.50;;;;;;5044607;28;20192;-84
2022/03/06 09:53:56;;;;;;;11.05;7.53;;;9.00;44.20;;;;;;5041946;28;20192;-85
2022/03/06 09:56:49;;;;;;;;;;;;;;;;;;;;;
2022/03/06 10:06:30;;;;;;;15.40;8.85;;;9.10;47.50;;;;;;5039924;28;20208;-87
2022/03/06 10:09:46;;;;;;;13.73;9.00;;;9.10;49.10;;;;;;5040462;28;20257;-88
2022/03/06 10:16:08;;;;;;;10.32;7.30;;;7.40;49.80;;;;;;4960726;28;20223;-86
2022/03/06 10:18:40;;;;;;;18.50;9.90;;;7.50;50.40;;;;;;4953815;28;20199;-86
2022/03/06 10:21:09;;;;;;;15.43;8.35;;;7.20;51.90;;;;;;5002535;28;20553;-88
2022/03/06 10:23:36;;;;;;;13.35;7.82;;;7.00;52.70;;;;;;5047040;28;20177;-86
2022/03/06 10:26:05;;;;;;;13.48;8.48;;;6.50;53.00;;;;;;5048986;28;20280;-86
2022/03/06 10:28:51;;;;;;;20.65;11.20;;;6.20;55.20;;;;;;5040648;28;20178;-85
2022/03/06 10:31:19;;;;;;;14.25;8.20;;;6.20;55.40;;;;;;5050529;28;20204;-86
2022/03/06 10:34:04;;;;;;;17.60;9.52;;;6.20;55.50;;;;;;5061594;28;20201;-86
2022/03/06 10:36:51;;;;;;;12.55;8.77;;;6.30;56.60;;;;;;5050812;28;20188;-83
2022/03/06 10:39:18;;;;;;;13.95;9.80;;;6.40;56.40;;;;;;5061738;28;20195;-86
2022/03/06 10:41:47;;;;;;;15.85;8.40;;;6.50;56.40;;;;;;5057350;28;20181;-87
2022/03/06 10:44:16;;;;;;;16.73;9.30;;;6.80;56.20;;;;;;5056173;28;20205;-85
2022/03/06 10:46:57;;;;;;;16.00;8.30;;;6.80;56.10;;;;;;5042584;28;20177;-85
2022/03/06 10:49:22;;;;;;;12.60;7.75;;;6.80;54.60;;;;;;5059014;28;20181;-87
2022/03/06 10:51:50;;;;;;;12.20;8.10;;;6.80;55.20;;;;;;5042206;28;20188;-86
2022/03/06 10:54:17;;;;;;;14.10;7.20;;;6.90;55.20;;;;;;5046874;28;20201;-87
2022/03/06 10:56:44;;;;;;;14.65;8.88;;;6.90;55.40;;;;;;5056312;28;20182;-87
2022/03/06 10:59:10;;;;;;;10.02;7.18;;;6.90;54.60;;;;;;5066448;28;20213;-87
2022/03/06 11:01:38;;;;;;;7.90;5.83;;;6.80;53.10;;;;;;5049424;28;20224;-90
2022/03/06 11:04:06;;;;;;;14.30;8.27;;;6.80;53.60;;;;;;5047597;28;20470;-87
2022/03/06 11:06:42;;;;;;;12.85;7.90;;;6.90;53.80;;;;;;5049118;28;20215;-87
2022/03/06 11:09:13;;;;;;;12.25;7.28;;;7.30;52.20;;;;;;5050928;28;20184;-86
2022/03/06 11:11:46;;;;;;;14.55;8.75;;;7.20;51.90;;;;;;5070798;28;20193;-86
2022/03/06 11:14:12;;;;;;;13.32;7.60;;;7.00;51.70;;;;;;5048435;28;20206;-87
2022/03/06 11:16:42;;;;;;;14.98;7.47;;;7.10;53.50;;;;;;5054656;28;20257;-87
2022/03/06 11:19:09;;;;;;;12.43;7.57;;;7.40;54.30;;;;;;5046828;28;20185;-89
2022/03/06 11:21:37;;;;;;;17.20;6.25;;;7.10;51.70;;;;;;5050010;28;20189;-88
2022/03/06 11:24:09;;;;;;;12.73;7.22;;;6.80;51.20;;;;;;5049759;28;20295;-87
2022/03/06 11:27:01;;;;;;;11.10;6.75;;;6.60;52.20;;;;;;5053846;28;20173;-87
2022/03/06 11:29:53;;;;;;;11.48;7.45;;;6.30;51.80;;;;;;5052351;28;20170;-87
2022/03/06 11:32:25;;;;;;;11.88;7.20;;;6.20;53.10;;;;;;5057564;28;20177;-88
2022/03/06 11:34:58;;;;;;;12.85;8.32;;;6.40;53.90;;;;;;5059201;28;20264;-86
2022/03/06 11:37:27;;;;;;;12.70;7.20;;;6.80;53.60;;;;;;5072576;28;20185;-86
2022/03/06 11:39:54;;;;;;;12.32;8.35;;;7.30;52.20;;;;;;5067663;28;20193;-88
2022/03/06 11:42:48;;;;;;;9.32;6.72;;;7.40;50.20;;;;;;5054588;28;20173;-88
2022/03/06 11:45:43;;;;;;;10.15;7.50;;;7.50;50.20;;;;;;5058342;28;20574;-86
2022/03/06 11:48:09;;;;;;;13.07;8.15;;;7.20;49.30;;;;;;5062185;28;20180;-90
2022/03/06 11:50:35;;;;;;;11.17;7.20;;;7.10;49.90;;;;;;5051789;28;20189;-89
2022/03/06 11:53:19;;;;;;;13.60;7.87;;;7.00;50.20;;;;;;5053442;28;20464;-87
2022/03/06 11:55:44;;;;;;;12.32;8.88;;;7.30;50.70;;;;;;5044300;28;20229;-88
2022/03/06 11:58:52;;;;;;;13.93;8.33;;;7.80;50.80;;;;;;5063640;28;20173;-86
2022/03/06 12:01:35;;;;;;;15.30;8.70;;;8.40;50.50;;;;;;5065634;28;20197;-86
2022/03/06 12:04:07;;;;;;;14.43;8.55;;;9.10;49.80;;;;;;5054571;23;20216;-84
2022/03/06 12:06:56;;;;;;;13.20;8.25;;;9.10;50.20;;;;;;5026652;28;20186;-83
2022/03/06 12:09:27;;;;;;;10.68;7.40;;;9.70;48.60;;;;;;5009423;28;20190;-84
2022/03/06 12:11:57;;;;;;;11.88;8.50;;;10.40;48.10;;;;;;5034050;28;20211;-83
2022/03/06 12:14:35;;;;;;;12.60;8.07;;;10.20;46.50;;;;;;5052366;28;20198;-83
2022/03/06 12:17:01;;;;;;;11.57;8.15;;;10.00;49.40;;;;;;5046656;28;20203;-83
2022/03/06 12:19:45;;;;;;;10.43;5.93;;;9.50;48.70;;;;;;5043424;28;20188;-83
2022/03/06 12:22:22;;;;;;;12.65;8.02;;;8.60;49.80;;;;;;5033399;28;20673;-85
2022/03/06 12:25:07;;;;;;;12.35;7.28;;;7.90;51.00;;;;;;5052510;28;20197;-84
2022/03/06 12:27:35;;;;;;;9.90;7.07;;;7.90;52.20;;;;;;5051634;28;20176;-83
2022/03/06 12:30:06;;;;;;;12.25;7.60;;;7.70;53.20;;;;;;5051693;28;20193;-84
2022/03/06 12:32:35;;;;;;;8.93;5.63;;;7.40;52.20;;;;;;5030019;28;20210;-83
2022/03/06 12:35:18;;;;;;;8.88;6.65;;;7.20;52.20;;;;;;5045079;28;20214;-84
2022/03/06 12:37:49;;;;;;;13.63;7.35;;;6.80;52.50;;;;;;5049883;28;20810;-83
2022/03/06 12:40:21;;;;;;;10.93;6.38;;;6.60;53.70;;;;;;5030329;28;20182;-83
2022/03/06 12:43:05;;;;;;;10.60;6.43;;;6.60;53.10;;;;;;5030077;28;20228;-82
2022/03/06 12:45:32;;;;;;;10.75;6.93;;;6.60;53.60;;;;;;5034430;28;20801;-82
2022/03/06 12:48:00;;;;;;;11.70;7.43;;;6.40;53.10;;;;;;5035505;28;20178;-83
2022/03/06 12:50:25;;;;;;;15.02;7.20;;;6.70;53.70;;;;;;5031865;28;20188;-85
2022/03/06 12:52:56;;;;;;;9.67;7.10;;;6.60;54.10;;;;;;5027965;28;20592;-84
2022/03/06 12:55:23;;;;;;;10.80;6.75;;;6.70;53.50;;;;;;5027791;28;20200;-84